Racecast

Miranda Gutierrez

Elk Grove (CA) · 12 · DELTACA D2SJS D3 · Compare head to head

Athlete ratingi 99.6 2016 XC season
Best race 103.0 XC
Races 76
Seasons 4 2013 — 2016

RankedNation #90161·CA #10812·CA D2 #4567·SJS #1240·SJS D3 #427·DELTA #88·Team #28 ?

Speed rating — all races

Cross Country

XC speed rating

2016 XC 96.4

Elk Grove (CA) · Grade 12

Date Meet Event Result Place Ratingi Difficultyi PR/SR Flags
2016-11-05 Calaveras County Fairgrounds 4828m 26:08.7 105th · 1st on team 98.7 +4.5% SR CSR
2016-10-28 Granite Park 4956m 26:18.4 81st · 9th on team 94.5 -1.7% ★PR ★CR SR CSR
2016-10-22 Mt. San Antonio College 4715m 24:32 80th · 2nd on team 103.0 +5.6% ★PR ★CR SR CSR RSR
2016-10-18 Elk Grove Regional Park 2993m 14:25 14th · 14th on team 100.9 +0.5% ★PR ★CR SR CSR RSR
2016-10-15 Willow Hills Reservoir Course 5000m 26:19.4 101st · 2nd on team 98.2 +2.5% SR CSR RSR
2016-09-28 Granite Park 4956m 26:34.1 93rd · 9th on team 93.4 -1.7% PR CR SR CSR
2016-09-03 Lagoon Valley Park 3218m 17:52 45th · 1st on team 96.4 +10.3% ★CR CSR
2016-08-26 Lodi Lake 3218m 17:49 36th · 2nd on team 84.5 -3.7% SR CSR
2016-08-19 Elk Grove Regional Park 2993m 14:51 12th · 12th on team 97.7 +0.5% SR CSR RSR

2015 XC 100.0

Elk Grove (CA) · Grade 11

Date Meet Event Result Place Ratingi Difficultyi PR/SR Flags
2015-11-07 Calaveras County Fairgrounds 4828m 25:12 85th · 1st on team 101.6 +4.5% ★PR ★CR SR CSR
2015-10-31 Willow Hills Reservoir Course 5000m 26:01 71st · 9th on team 100.2 +2.5% ★CR CSR
2015-10-24 Mt. San Antonio College 4715m 25:23 137th · 3rd on team 99.7 +5.6% PR CR SR CSR
2015-10-17 Willow Hills Reservoir Course 3400m 16:29 79th · 1st on team 103.0 +2.7% ★PR ★CR ★R SR CSR RSR
2015-10-07 Granite Park 5000m 24:30.1 68th · 11th on team 101.7 -1.7%
2015-09-26 Elkhorn Golf Course 3218m 15:40 72nd · 1st on team 96.8 -3.4% ★PR ★CR SR CSR
2015-09-12 Granite Park 5000m 24:12.5 71st · 8th on team 102.6 -1.7% ★PR ★CR R SR CSR RSR
2015-08-28 Lodi Lake 3218m 15:55 27th · 3rd on team 94.8 -3.7% PR ★CR SR CSR RSR

2014 XC 92.0

Elk Grove (CA) · Grade 10

Date Meet Event Result Place Ratingi Difficultyi PR/SR Flags
2014-11-01 Willow Hills Reservoir Course 3400m 18:01 56th · 3rd on team 94.9 +2.7% PR CR SR CSR RSR
2014-10-25 Mt. San Antonio College 4715m 27:28.3 59th · 2nd on team 91.9 +5.6% PR CR SR CSR
2014-10-18 Willow Hills Reservoir Course 3400m 18:06.6 104th · 4th on team 94.7 +2.7% PR CR SR CSR RSR
2014-09-27 Elkhorn Golf Course 3218m 17:05 177th · 3rd on team 88.3 -3.4% CSR
2014-09-13 Willow Hills Reservoir Course 3540m 19:45 70th · 5th on team 87.5 -0.9% ★CR SR CSR
2014-08-29 Lodi Lake 3218m 16:00 69th · 5th on team 92.9 -3.7% PR CR SR CSR
2014-08-22 Elk Grove Regional Park 2993m 15:33 14th · 14th on team 93.4 +0.5% SR CSR RSR

2013 XC 90.2

Elk Grove (CA) · Grade 9

Date Meet Event Result Place Ratingi Difficultyi PR/SR Flags
2013-10-29 Elk Grove Regional Park 2993m 14:50 9th · 9th on team 96.6 +0.5% PR CR SR CSR
2013-10-19 Willow Hills Reservoir Course 3400m 18:27 133rd · 10th on team 92.8 +2.7% PR CR SR CSR
2013-10-05 Foresthill High School 3218m 16:22 11th · 2nd on team 97.1 +1.6% PR ★CR R SR CSR RSR
2013-10-01 Granite Park 3540m 18:10 33rd · 13th on team 93.8 -1.7% ★PR ★CR R SR CSR RSR
2013-09-28 Elkhorn Golf Course 3218m 16:52 136th · 12th on team 89.3 -3.4% PR CR SR CSR
2013-09-07 Lagoon Valley Park 3218m 20:22 259th · 9th on team 85.4 +10.3% PR CR SR CSR
2013-08-31 Maidu Park 4000m 21:33 39th · 11th on team 89.4 -3.0% ★PR ★CR R SR CSR RSR
2013-08-23 Elk Grove Regional Park 2993m 18:40 11th · 11th on team 77.2 +0.5% PR CR R SR CSR RSR

Track & Field

TF speed rating

2016 TF 95.1

Elk Grove (CA) · Grade 11

Date Meet Event Result Place Ratingi Difficultyi PR/SR Flags
2016-05-13 Delta League Varsity & F/S Finals 1600m 7:01.25 26th · 3rd on team 97.3 -0.7%
2016-05-13 Delta League Varsity & F/S Finals 800m 3:03.26 47th · 5th on team 99.3 -0.7% RSR
2016-05-06 Delta League Varsity & F/S Trials 800m 3:03.26 36th · 4th on team 98.8 -0.7% SR RSR
2016-04-29 Sheldon Distance Carnival 800m 3:07.7 44th · 1st on team 96.6 -0.7% SR
2016-04-29 Sheldon Distance Carnival 1600m 6:57.1 47th · 2nd on team 97.8 -0.7% SR RSR
2016-04-23 Halden Invitational 800m 3:13.76 27th · 1st on team 94.0 -0.2%
2016-04-23 Halden Invitational 1600m 7:01 41st · 2nd on team 97.3 -0.2% SR
2016-04-13 Delta: Elk Grove, Pleasant Grove vs MTHS 800m 3:10.87 10th · 4th on team 96.1 +0.3% SR RSR
2016-04-13 Delta: Elk Grove, Pleasant Grove vs MTHS 1600m 7:03.78 8th · 4th on team 97.5 +0.3% SR RSR
2016-04-06 Delta League Elk Grove, Grant 800m 3:17.82 5th · 5th on team 91.8 -0.9%
2016-04-06 Delta League Elk Grove, Grant 1600m 7:38.33 4th · 4th on team 89.2 -0.9%
2016-03-30 Delta: Elk Grove vs. Jesuit/St. Francis 800m 3:11.61 4th · 3rd on team 95.3 +0.1%
2016-03-18 Bronco Roundup Distance Carnival 800m 3:11.08 104th · 4th on team 94.5 -1.1% SR
2016-03-16 Delta League Elk Grove, Davis, Franklin 1600m 7:22.07 13th · 4th on team 92.2 -0.9%
2016-03-16 Delta League Elk Grove, Davis, Franklin 800m 3:25.21 10th · 5th on team 88.3 -0.9%
2016-02-27 Capital Classic Relays 1600m 7:11.54 31st · 4th on team 95.7 +0.4% SR RSR
2016-02-27 Capital Classic Relays 800m 3:12.24 27th · 3rd on team 95.5 +0.4% SR

2015 TF 96.3

Elk Grove (CA) · Grade 10

Date Meet Event Result Place Ratingi Difficultyi PR/SR Flags
2015-04-22 Delta League, Grant, Sheldon, Elk Grove 1600m 6:54.19 4th · 2nd on team 98.8 -0.9%
2015-04-22 Delta League, Grant, Sheldon, Elk Grove 800m 3:08.16 3rd · 1st on team 96.3 -0.9%
2015-04-22 Delta League, Grant, Sheldon, Elk Grove 200m 28.16 4th · 2nd on team -0.9% ★PR SR
2015-04-17 Wolfpack Distance Festival 800m 3:02.3 1st · 1st on team 100.8 +0.4% ★PR R SR RSR
2015-04-17 Wolfpack Distance Festival 1600m 6:50.9 2nd · 2nd on team 100.9 +0.4% ★PR R SR RSR
2015-04-15 Delta League, MTHS, PGHS, EGHS 1600m 6:50.95 5th · 2nd on team 99.9 -0.9% PR SR RSR
2015-04-15 Delta League, MTHS, PGHS, EGHS 800m 3:14.56 6th · 1st on team 93.5 -0.9%
2015-04-08 Delta: Elk Grove @ Grant Dual 1600m 7:09.1 2nd · 2nd on team 96.8 +0.9%
2015-04-08 Delta: Elk Grove @ Grant Dual 800m 3:20.58 1st · 1st on team 91.8 +0.9%
2015-03-27 Bronco Roundup Distance Carnival 800m 3:03.31 82nd · 4th on team 98.9 -1.1% PR SR RSR
2015-03-25 Delta League, Jesuit, St. Francis, EG 800m 3:10.9 3rd · 1st on team 95.0 -0.9%
2015-03-25 Delta League, Jesuit, St. Francis, EG 1600m 7:08.22 2nd · 2nd on team 95.6 -0.9%
2015-03-21 Depth Charge 1600m 7:22.73 7th · 1st on team 93.8 +0.6%
2015-03-21 Depth Charge 3200m 16:06.76 5th · 2nd on team 92.5 +0.6% ★PR SR
2015-03-18 Delta: Elk Grove, Franklin vs Davis 1600m 7:11.19 6th · 2nd on team 95.6 -0.2%
2015-03-18 Delta: Elk Grove, Franklin vs Davis 800m 3:14.98 8th · 1st on team 93.5 -0.2%
2015-02-28 Capital Classic 800m 3:06.13 22nd · 1st on team 97.1 -0.9% SR RSR
2015-02-28 Capital Classic 1600m 7:03.74 21st · 2nd on team 96.3 -0.9% SR

2014 TF 97.1

Elk Grove (CA) · Grade 9

Date Meet Event Result Place Ratingi Difficultyi PR/SR Flags
2014-05-14 DVC League Trials and Finals 1600m 7:33.24 13th · 5th on team 91.3 +0.3%
2014-05-14 DVC League Trials and Finals 800m 3:03.73 8th · 3rd on team 99.8 +0.3% PR SR
2014-04-23 DVC Center Meet #2 800m 3:06.42 8th · 3rd on team 98.1 -0.2% PR R SR RSR
2014-04-23 DVC Center Meet #2 1600m 6:52.9 7th · 3rd on team 99.9 -0.2% PR R SR RSR
2014-04-12 Halden Invitational 1600m 7:00.77 26th · 4th on team 98.0 -0.2% PR R SR RSR
2014-04-12 Halden Invitational 800m 3:07.43 25th · 1st on team 97.5 -0.2% PR SR
2014-03-22 Husky Invitational 800m 3:09.29 42nd · 3rd on team 95.9 -0.7%
2014-03-19 DVC Center Meet #1 800m 3:09.1 11th · 3rd on team 95.8 -0.9%
2014-03-15 Folsom Depth Charge 800m 3:08.51 15th · 2nd on team 97.6 +0.6% PR R SR RSR